createdAt,value
2023-11-05T00:03:01.936Z,97.70
2023-11-05T00:07:07.601Z,97.70
2023-11-05T00:11:13.422Z,97.70
2023-11-05T00:15:19.002Z,97.70
2023-11-05T00:19:24.592Z,97.70
2023-11-05T00:23:31.515Z,97.70
2023-11-05T00:27:38.073Z,97.70
2023-11-05T00:31:44.171Z,97.60
2023-11-05T00:35:49.770Z,97.60
2023-11-05T00:39:55.334Z,97.60
2023-11-05T00:44:00.889Z,97.90
2023-11-05T00:48:06.642Z,98.00
2023-11-05T00:52:12.258Z,98.10
2023-11-05T00:56:17.983Z,98.30
2023-11-05T01:00:27.336Z,98.40
2023-11-05T01:04:33.516Z,98.40
2023-11-05T01:08:39.108Z,98.40
2023-11-05T01:12:44.842Z,98.40
2023-11-05T01:16:50.392Z,98.50
2023-11-05T01:20:57.402Z,98.40
2023-11-05T01:25:03.210Z,98.50
2023-11-05T01:29:08.854Z,98.60
2023-11-05T01:33:14.512Z,98.60
2023-11-05T01:37:20.160Z,98.70
2023-11-05T01:41:25.902Z,98.70
2023-11-05T01:45:31.576Z,98.80
2023-11-05T01:49:38.661Z,98.90
2023-11-05T01:53:47.174Z,99.00
2023-11-05T01:57:54.672Z,99.10
2023-11-05T02:02:02.504Z,99.10
2023-11-05T02:06:08.948Z,99.40
2023-11-05T02:10:14.552Z,99.20
2023-11-05T02:14:21.653Z,99.30
2023-11-05T02:18:27.251Z,99.30
2023-11-05T02:22:35.016Z,99.30
2023-11-05T02:26:40.677Z,99.60
2023-11-05T02:30:46.304Z,99.40
2023-11-05T02:34:52.027Z,99.60
2023-11-05T02:38:57.656Z,99.50
2023-11-05T02:43:03.395Z,99.50
2023-11-05T02:47:09.067Z,99.60
2023-11-05T02:51:14.613Z,99.60
2023-11-05T02:55:20.125Z,99.60
2023-11-05T02:59:27.404Z,99.60
2023-11-05T03:03:33.285Z,99.80
2023-11-05T03:07:38.873Z,99.70
2023-11-05T03:11:46.758Z,99.80
2023-11-05T03:15:52.343Z,99.90
2023-11-05T03:19:57.884Z,99.90
2023-11-05T03:24:04.345Z,99.90
2023-11-05T03:28:09.936Z,99.90
2023-11-05T03:32:16.189Z,99.90
2023-11-05T03:36:21.993Z,99.90
2023-11-05T03:40:27.672Z,99.90
2023-11-05T03:44:33.313Z,99.90
2023-11-05T03:48:38.894Z,99.90
2023-11-05T03:52:44.473Z,99.90
2023-11-05T03:56:50.029Z,99.90
2023-11-05T04:00:55.770Z,99.90
2023-11-05T04:05:01.356Z,99.90
2023-11-05T04:09:07.033Z,99.90
2023-11-05T04:13:12.620Z,99.90
2023-11-05T04:17:18.199Z,99.90
2023-11-05T04:21:23.967Z,99.90
2023-11-05T04:25:29.578Z,99.90
2023-11-05T04:29:36.567Z,99.90
2023-11-05T04:33:42.359Z,99.90
2023-11-05T04:37:47.885Z,99.90
2023-11-05T04:41:54.980Z,99.90
2023-11-05T04:46:00.888Z,99.90
2023-11-05T04:50:06.564Z,99.90
2023-11-05T04:54:12.111Z,99.90
2023-11-05T04:58:17.761Z,99.90
2023-11-05T05:02:23.356Z,99.90
2023-11-05T05:06:28.889Z,99.90
2023-11-05T05:10:34.590Z,99.90
2023-11-05T05:14:40.254Z,99.90
2023-11-05T05:18:46.234Z,99.90
2023-11-05T05:22:52.641Z,99.90
2023-11-05T05:26:58.281Z,99.90
2023-11-05T05:31:03.973Z,99.90
2023-11-05T05:35:09.658Z,99.90
2023-11-05T05:39:15.428Z,99.90
2023-11-05T05:43:20.994Z,99.90
2023-11-05T05:47:26.551Z,99.90
2023-11-05T05:51:32.921Z,99.90
2023-11-05T05:55:41.922Z,99.90
2023-11-05T05:59:48.161Z,99.90
2023-11-05T06:03:53.831Z,99.90
2023-11-05T06:07:59.438Z,99.90
2023-11-05T06:12:06.243Z,99.90
2023-11-05T06:16:12.272Z,99.90
2023-11-05T06:20:17.918Z,99.90
2023-11-05T06:24:23.497Z,99.90
2023-11-05T06:28:29.091Z,99.90
2023-11-05T06:32:35.113Z,99.90
2023-11-05T06:37:01.082Z,99.90
2023-11-05T06:41:06.660Z,99.90
2023-11-05T06:45:12.199Z,99.90
2023-11-05T06:49:17.896Z,99.90
2023-11-05T06:53:23.873Z,99.90
2023-11-05T06:57:29.460Z,99.90
2023-11-05T07:01:35.508Z,99.90
2023-11-05T07:05:41.261Z,99.90
2023-11-05T07:09:49.245Z,99.90
2023-11-05T07:13:55.168Z,99.90
2023-11-05T07:18:00.749Z,99.90
2023-11-05T07:22:06.421Z,99.90
2023-11-05T07:26:15.256Z,99.90
2023-11-05T07:30:20.825Z,99.90
2023-11-05T07:34:29.540Z,99.90
2023-11-05T07:38:35.091Z,99.90
2023-11-05T07:42:42.711Z,99.90
2023-11-05T07:46:48.353Z,99.90
2023-11-05T07:50:53.951Z,99.90
2023-11-05T07:55:00.699Z,99.90
2023-11-05T07:59:06.583Z,99.90
2023-11-05T08:03:12.130Z,99.90
2023-11-05T08:07:17.720Z,99.90
2023-11-05T08:11:23.386Z,99.90
2023-11-05T08:15:28.873Z,99.90
2023-11-05T08:19:34.525Z,99.90
2023-11-05T08:23:40.363Z,99.90
2023-11-05T08:27:45.850Z,99.90
2023-11-05T08:31:51.485Z,99.90
2023-11-05T08:35:56.984Z,99.90
2023-11-05T08:40:03.822Z,99.90
2023-11-05T08:44:09.402Z,99.90
2023-11-05T08:48:15.029Z,99.90
2023-11-05T08:52:22.195Z,99.90
2023-11-05T08:56:28.305Z,99.90
2023-11-05T09:00:36.850Z,99.90
2023-11-05T09:04:42.669Z,99.90
2023-11-05T09:08:48.479Z,99.90
2023-11-05T09:12:55.754Z,99.90
2023-11-05T09:17:01.419Z,99.90
2023-11-05T09:21:07.080Z,99.90
2023-11-05T09:25:12.641Z,99.90
2023-11-05T09:29:19.330Z,99.90
2023-11-05T09:33:24.891Z,99.90
2023-11-05T09:37:30.990Z,99.90
2023-11-05T09:41:39.480Z,99.90
2023-11-05T09:45:52.291Z,99.90
2023-11-05T09:49:57.830Z,99.90
2023-11-05T09:54:03.459Z,99.90
2023-11-05T09:58:14.426Z,99.90
2023-11-05T10:02:19.974Z,99.90
2023-11-05T10:06:25.473Z,99.90
2023-11-05T10:10:31.078Z,99.90
2023-11-05T10:14:37.327Z,99.90
2023-11-05T10:18:45.194Z,99.90
2023-11-05T10:23:05.726Z,99.90
2023-11-05T10:27:11.280Z,99.90
2023-11-05T10:31:16.908Z,99.90
2023-11-05T10:35:28.865Z,99.90
2023-11-05T10:39:34.784Z,99.90
2023-11-05T10:43:40.920Z,99.90
2023-11-05T10:47:47.506Z,99.60
2023-11-05T10:51:53.763Z,99.80
2023-11-05T10:55:59.708Z,99.80
2023-11-05T11:00:09.865Z,99.80
2023-11-05T11:04:19.510Z,99.70
2023-11-05T11:08:27.821Z,99.70
2023-11-05T11:12:35.356Z,99.80
2023-11-05T11:16:44.345Z,99.80
2023-11-05T11:20:55.753Z,99.80
2023-11-05T11:25:04.364Z,99.70
2023-11-05T11:29:12.440Z,99.80
2023-11-05T11:33:23.101Z,99.90
2023-11-05T11:37:29.043Z,99.80
2023-11-05T11:41:38.802Z,99.70
2023-11-05T11:45:44.533Z,99.70
2023-11-05T11:49:50.258Z,99.60
2023-11-05T11:53:56.003Z,99.50
2023-11-05T11:58:01.954Z,99.50
2023-11-05T12:02:07.382Z,99.50
2023-11-05T12:06:14.929Z,99.60
2023-11-05T12:10:21.184Z,99.50
2023-11-05T12:14:29.235Z,99.60
2023-11-05T12:18:35.560Z,99.60
2023-11-05T12:22:47.616Z,99.60
2023-11-05T12:26:54.485Z,99.60
2023-11-05T12:31:04.984Z,99.50
2023-11-05T12:35:12.233Z,99.60
2023-11-05T12:39:17.796Z,99.70
2023-11-05T12:43:25.038Z,99.80
2023-11-05T12:47:30.521Z,99.80
2023-11-05T12:51:36.085Z,99.80
2023-11-05T12:55:42.182Z,99.80
2023-11-05T12:59:47.583Z,99.80
2023-11-05T13:03:53.129Z,99.90
2023-11-05T13:07:59.062Z,99.90
2023-11-05T13:12:07.304Z,99.90
2023-11-05T13:16:12.644Z,99.90
2023-11-05T13:20:20.577Z,99.90
2023-11-05T13:24:25.959Z,99.90
2023-11-05T13:28:31.930Z,99.90
2023-11-05T13:32:38.232Z,99.90
2023-11-05T13:36:44.958Z,99.90
2023-11-05T13:40:51.040Z,99.90
2023-11-05T13:44:56.489Z,99.90
2023-11-05T13:49:01.844Z,99.90
2023-11-05T13:53:07.357Z,99.90
2023-11-05T13:57:13.397Z,99.90
2023-11-05T14:01:19.723Z,99.90
2023-11-05T14:05:25.371Z,99.90
2023-11-05T14:09:33.020Z,99.90
2023-11-05T14:13:38.557Z,99.90
2023-11-05T14:17:44.034Z,99.90
2023-11-05T14:21:52.248Z,99.90
2023-11-05T14:25:57.744Z,99.90
2023-11-05T14:30:05.516Z,99.90
2023-11-05T14:34:10.859Z,99.90
2023-11-05T14:38:16.290Z,99.90
2023-11-05T14:42:22.615Z,99.90
2023-11-05T14:46:28.047Z,99.90
2023-11-05T14:50:36.185Z,99.90
2023-11-05T14:54:41.760Z,99.90
2023-11-05T14:58:48.014Z,99.90
2023-11-05T15:02:53.729Z,99.90
2023-11-05T15:06:59.321Z,99.90
2023-11-05T15:11:05.498Z,99.90
2023-11-05T15:15:11.256Z,99.90
2023-11-05T15:19:18.388Z,99.90
2023-11-05T15:23:24.038Z,99.90
2023-11-05T15:27:29.819Z,99.90
2023-11-05T15:31:35.909Z,99.90
2023-11-05T15:35:41.572Z,99.90
2023-11-05T15:39:47.251Z,99.90
2023-11-05T15:43:53.077Z,99.90
2023-11-05T15:47:58.769Z,99.90
2023-11-05T15:52:05.541Z,99.90
2023-11-05T15:56:11.215Z,99.90
2023-11-05T16:00:17.190Z,99.90
2023-11-05T16:04:22.766Z,99.90
2023-11-05T16:08:29.316Z,99.90
2023-11-05T16:12:35.318Z,99.90
2023-11-05T16:16:41.334Z,99.90
2023-11-05T16:20:46.985Z,99.90
2023-11-05T16:24:52.704Z,99.90
2023-11-05T16:28:58.405Z,99.90
2023-11-05T16:33:04.262Z,99.80
2023-11-05T16:37:12.733Z,99.90
2023-11-05T16:41:18.859Z,99.70
2023-11-05T16:45:24.406Z,99.70
2023-11-05T16:49:32.435Z,99.70
2023-11-05T16:53:38.145Z,99.60
2023-11-05T16:57:43.740Z,99.70
2023-11-05T17:01:51.178Z,99.80
2023-11-05T17:05:56.759Z,99.90
2023-11-05T17:10:02.506Z,99.90
2023-11-05T17:14:07.934Z,99.90
2023-11-05T17:18:13.465Z,99.90
2023-11-05T17:22:19.512Z,99.90
2023-11-05T17:26:25.470Z,99.90
2023-11-05T17:30:31.768Z,99.90
2023-11-05T17:34:37.192Z,99.90
2023-11-05T17:38:42.651Z,99.90
2023-11-05T17:42:47.957Z,99.90
2023-11-05T17:46:54.758Z,99.90
2023-11-05T17:51:00.325Z,99.90
2023-11-05T17:55:07.238Z,99.90
2023-11-05T17:59:12.919Z,99.90
2023-11-05T18:03:18.258Z,99.90
2023-11-05T18:07:23.646Z,99.90
2023-11-05T18:11:29.900Z,99.90
2023-11-05T18:15:35.270Z,99.90
2023-11-05T18:19:40.654Z,99.90
2023-11-05T18:23:46.112Z,99.90
2023-11-05T18:27:51.514Z,99.90
2023-11-05T18:31:57.037Z,99.90
2023-11-05T18:36:02.510Z,99.90
2023-11-05T18:40:08.616Z,99.90
2023-11-05T18:44:15.573Z,99.90
2023-11-05T18:48:21.963Z,99.90
2023-11-05T18:52:27.435Z,99.90
2023-11-05T18:56:32.777Z,99.90
2023-11-05T19:00:38.110Z,99.90
2023-11-05T19:04:43.523Z,99.90
2023-11-05T19:08:48.947Z,99.90
2023-11-05T19:12:54.272Z,99.90
2023-11-05T19:16:59.650Z,99.90
2023-11-05T19:21:05.184Z,99.90
2023-11-05T19:25:12.201Z,99.90
2023-11-05T19:29:18.812Z,99.90
2023-11-05T19:33:24.272Z,99.90
2023-11-05T19:37:32.942Z,99.90
2023-11-05T19:41:41.589Z,99.90
2023-11-05T19:45:47.229Z,99.90
2023-11-05T19:49:52.748Z,99.90
2023-11-05T19:53:58.156Z,99.90
2023-11-05T19:58:05.678Z,99.90
2023-11-05T20:02:19.936Z,99.90
2023-11-05T20:06:28.067Z,99.90
2023-11-05T20:10:33.522Z,99.90
2023-11-05T20:14:39.497Z,99.90
2023-11-05T20:18:45.609Z,99.90
2023-11-05T20:22:51.827Z,99.90
2023-11-05T20:26:57.753Z,99.90
2023-11-05T20:31:04.150Z,99.90
2023-11-05T20:35:09.884Z,99.90
2023-11-05T20:39:15.564Z,99.90
2023-11-05T20:43:21.487Z,99.90
2023-11-05T20:47:26.920Z,99.90
2023-11-05T20:51:33.216Z,99.90
2023-11-05T20:55:39.580Z,99.90
2023-11-05T20:59:45.079Z,99.90
2023-11-05T21:03:50.645Z,99.90
2023-11-05T21:07:58.157Z,99.90
2023-11-05T21:12:04.044Z,99.90
2023-11-05T21:16:09.461Z,99.90
2023-11-05T21:20:15.115Z,99.90
2023-11-05T21:24:20.467Z,99.90
2023-11-05T21:28:25.819Z,99.90
2023-11-05T21:32:31.166Z,99.90
2023-11-05T21:36:36.554Z,99.90
2023-11-05T21:40:42.000Z,99.90
2023-11-05T21:44:47.582Z,99.90
2023-11-05T21:48:53.073Z,99.90
2023-11-05T21:52:58.527Z,99.90
2023-11-05T21:57:04.190Z,99.90
2023-11-05T22:01:09.563Z,99.90
2023-11-05T22:05:14.992Z,99.90
2023-11-05T22:09:20.566Z,99.90
2023-11-05T22:13:25.864Z,99.90
2023-11-05T22:17:32.075Z,99.90
2023-11-05T22:21:42.986Z,99.90
2023-11-05T22:25:48.324Z,99.90
2023-11-05T22:29:53.720Z,99.90
2023-11-05T22:33:59.209Z,99.90
2023-11-05T22:38:04.980Z,99.90
2023-11-05T22:42:10.849Z,99.90
2023-11-05T22:46:16.401Z,99.90
2023-11-05T22:50:21.845Z,99.90
2023-11-05T22:54:27.224Z,99.90
2023-11-05T22:58:32.536Z,99.90
2023-11-05T23:02:38.012Z,99.90
2023-11-05T23:06:43.466Z,99.90
2023-11-05T23:10:48.807Z,99.90
2023-11-05T23:14:54.550Z,99.90
2023-11-05T23:18:59.919Z,99.90
2023-11-05T23:23:05.336Z,99.90
2023-11-05T23:27:10.721Z,99.90
2023-11-05T23:31:16.321Z,99.90
2023-11-05T23:35:21.759Z,99.90
2023-11-05T23:39:27.079Z,99.90
2023-11-05T23:43:32.437Z,99.90
2023-11-05T23:47:37.831Z,99.90
2023-11-05T23:51:46.376Z,99.90
2023-11-05T23:55:51.836Z,99.90
2023-11-05T23:59:57.167Z,99.90
